sensor_id;sensor_type;location;lat;lon;timestamp;pressure;altitude;pressure_sealevel;temperature
68440;BMP180;55421;51.600;5.718;2022-08-21T00:01:22;224022.00;;;17.10
68440;BMP180;55421;51.600;5.718;2022-08-21T00:03:50;224006.80;;;17.00
68440;BMP180;55421;51.600;5.718;2022-08-21T00:06:16;223981.59;;;17.00
68440;BMP180;55421;51.600;5.718;2022-08-21T00:08:43;223956.41;;;16.90
68440;BMP180;55421;51.600;5.718;2022-08-21T00:11:09;223929.41;;;16.90
68440;BMP180;55421;51.600;5.718;2022-08-21T00:13:37;223894.59;;;16.80
68440;BMP180;55421;51.600;5.718;2022-08-21T00:16:04;223884.41;;;16.80
68440;BMP180;55421;51.600;5.718;2022-08-21T00:18:31;223877.59;;;16.80
68440;BMP180;55421;51.600;5.718;2022-08-21T00:20:58;223886.41;;;16.80
68440;BMP180;55421;51.600;5.718;2022-08-21T00:23:25;223885.59;;;16.80
68440;BMP180;55421;51.600;5.718;2022-08-21T00:25:52;223884.41;;;16.80
68440;BMP180;55421;51.600;5.718;2022-08-21T00:28:18;223894.00;;;16.80
68440;BMP180;55421;51.600;5.718;2022-08-21T00:30:45;223908.20;;;16.84
68440;BMP180;55421;51.600;5.718;2022-08-21T00:33:12;223916.00;;;16.90
68440;BMP180;55421;51.600;5.718;2022-08-21T00:35:42;223917.41;;;16.90
68440;BMP180;55421;51.600;5.718;2022-08-21T00:38:09;223909.80;;;16.86
68440;BMP180;55421;51.600;5.718;2022-08-21T00:40:43;223922.20;;;16.90
68440;BMP180;55421;51.600;5.718;2022-08-21T00:43:15;223939.59;;;16.90
68440;BMP180;55421;51.600;5.718;2022-08-21T00:45:43;223951.59;;;16.90
68440;BMP180;55421;51.600;5.718;2022-08-21T00:48:10;223961.20;;;16.90
68440;BMP180;55421;51.600;5.718;2022-08-21T00:50:44;223962.80;;;16.92
68440;BMP180;55421;51.600;5.718;2022-08-21T00:53:13;223972.80;;;17.00
68440;BMP180;55421;51.600;5.718;2022-08-21T00:55:41;223962.41;;;16.94
68440;BMP180;55421;51.600;5.718;2022-08-21T00:58:11;223946.80;;;16.90
68440;BMP180;55421;51.600;5.718;2022-08-21T01:00:41;223936.00;;;16.90
68440;BMP180;55421;51.600;5.718;2022-08-21T01:03:18;223907.20;;;16.86
68440;BMP180;55421;51.600;5.718;2022-08-21T01:05:46;223893.00;;;16.80
68440;BMP180;55421;51.600;5.718;2022-08-21T01:08:14;223874.41;;;16.80
68440;BMP180;55421;51.600;5.718;2022-08-21T01:10:42;223872.80;;;16.80
68440;BMP180;55421;51.600;5.718;2022-08-21T01:13:11;223871.59;;;16.80
68440;BMP180;55421;51.600;5.718;2022-08-21T01:15:45;223876.00;;;16.80
68440;BMP180;55421;51.600;5.718;2022-08-21T01:18:13;223880.41;;;16.80
68440;BMP180;55421;51.600;5.718;2022-08-21T01:23:31;223871.20;;;16.80
68440;BMP180;55421;51.600;5.718;2022-08-21T01:25:58;223868.41;;;16.80
68440;BMP180;55421;51.600;5.718;2022-08-21T01:28:26;223841.59;;;16.70
68440;BMP180;55421;51.600;5.718;2022-08-21T01:30:54;223820.80;;;16.70
68440;BMP180;55421;51.600;5.718;2022-08-21T01:33:24;223802.00;;;16.70
68440;BMP180;55421;51.600;5.718;2022-08-21T01:35:51;223797.20;;;16.66
68440;BMP180;55421;51.600;5.718;2022-08-21T01:38:17;223806.00;;;16.70
68440;BMP180;55421;51.600;5.718;2022-08-21T01:40:44;223807.59;;;16.70
68440;BMP180;55421;51.600;5.718;2022-08-21T01:43:10;223802.00;;;16.68
68440;BMP180;55421;51.600;5.718;2022-08-21T01:45:37;223802.00;;;16.70
68440;BMP180;55421;51.600;5.718;2022-08-21T01:48:03;223798.80;;;16.66
68440;BMP180;55421;51.600;5.718;2022-08-21T01:50:31;223785.20;;;16.60
68440;BMP180;55421;51.600;5.718;2022-08-21T01:52:57;223767.59;;;16.60
68440;BMP180;55421;51.600;5.718;2022-08-21T01:55:24;223750.59;;;16.60
68440;BMP180;55421;51.600;5.718;2022-08-21T01:57:50;223745.80;;;16.60
68440;BMP180;55421;51.600;5.718;2022-08-21T02:00:21;223759.59;;;16.60
68440;BMP180;55421;51.600;5.718;2022-08-21T02:02:50;223762.20;;;16.60
68440;BMP180;55421;51.600;5.718;2022-08-21T02:05:18;223730.20;;;16.50
68440;BMP180;55421;51.600;5.718;2022-08-21T02:07:51;223704.59;;;16.50
68440;BMP180;55421;51.600;5.718;2022-08-21T02:10:25;223665.00;;;16.40
68440;BMP180;55421;51.600;5.718;2022-08-21T02:12:54;223652.41;;;16.40
68440;BMP180;55421;51.600;5.718;2022-08-21T02:15:21;223637.80;;;16.40
68440;BMP180;55421;51.600;5.718;2022-08-21T02:17:52;223623.59;;;16.40
68440;BMP180;55421;51.600;5.718;2022-08-21T02:20:32;223623.59;;;16.40
68440;BMP180;55421;51.600;5.718;2022-08-21T02:22:59;223629.41;;;16.40
68440;BMP180;55421;51.600;5.718;2022-08-21T02:25:29;223626.20;;;16.40
68440;BMP180;55421;51.600;5.718;2022-08-21T02:27:57;223625.20;;;16.40
68440;BMP180;55421;51.600;5.718;2022-08-21T02:30:31;223610.41;;;16.30
68440;BMP180;55421;51.600;5.718;2022-08-21T02:32:59;223602.41;;;16.30
68440;BMP180;55421;51.600;5.718;2022-08-21T02:35:27;223578.59;;;16.30
68440;BMP180;55421;51.600;5.718;2022-08-21T02:37:59;223579.80;;;16.30
68440;BMP180;55421;51.600;5.718;2022-08-21T02:40:30;223591.20;;;16.30
68440;BMP180;55421;51.600;5.718;2022-08-21T02:42:59;223591.00;;;16.30
68440;BMP180;55421;51.600;5.718;2022-08-21T02:45:26;223584.41;;;16.30
68440;BMP180;55421;51.600;5.718;2022-08-21T02:47:59;223571.80;;;16.30
68440;BMP180;55421;51.600;5.718;2022-08-21T02:50:32;223534.20;;;16.20
68440;BMP180;55421;51.600;5.718;2022-08-21T02:52:59;223493.41;;;16.10
68440;BMP180;55421;51.600;5.718;2022-08-21T02:55:30;223469.00;;;16.10
68440;BMP180;55421;51.600;5.718;2022-08-21T02:57:58;223443.20;;;16.00
68440;BMP180;55421;51.600;5.718;2022-08-21T03:00:29;223427.59;;;16.00
68440;BMP180;55421;51.600;5.718;2022-08-21T03:02:57;223402.41;;;15.94
68440;BMP180;55421;51.600;5.718;2022-08-21T03:05:28;223368.00;;;15.90
68440;BMP180;55421;51.600;5.718;2022-08-21T03:07:55;223329.41;;;15.84
68440;BMP180;55421;51.600;5.718;2022-08-21T03:10:22;223301.41;;;15.80
68440;BMP180;55421;51.600;5.718;2022-08-21T03:12:49;223265.20;;;15.70
68440;BMP180;55421;51.600;5.718;2022-08-21T03:15:19;223230.00;;;15.68
68440;BMP180;55421;51.600;5.718;2022-08-21T03:17:47;223231.20;;;15.70
68440;BMP180;55421;51.600;5.718;2022-08-21T03:20:17;223238.41;;;15.70
68440;BMP180;55421;51.600;5.718;2022-08-21T03:22:44;223238.41;;;15.70
68440;BMP180;55421;51.600;5.718;2022-08-21T03:25:11;223228.80;;;15.66
68440;BMP180;55421;51.600;5.718;2022-08-21T03:27:38;223169.59;;;15.54
68440;BMP180;55421;51.600;5.718;2022-08-21T03:30:07;223126.00;;;15.50
68440;BMP180;55421;51.600;5.718;2022-08-21T03:32:35;223109.20;;;15.46
68440;BMP180;55421;51.600;5.718;2022-08-21T03:35:04;223133.41;;;15.50
68440;BMP180;55421;51.600;5.718;2022-08-21T03:37:31;223147.20;;;15.50
68440;BMP180;55421;51.600;5.718;2022-08-21T03:39:58;223160.41;;;15.50
68440;BMP180;55421;51.600;5.718;2022-08-21T03:42:24;223148.41;;;15.50
68440;BMP180;55421;51.600;5.718;2022-08-21T03:44:51;223143.80;;;15.50
68440;BMP180;55421;51.600;5.718;2022-08-21T03:47:18;223130.20;;;15.50
68440;BMP180;55421;51.600;5.718;2022-08-21T03:49:44;223106.20;;;15.44
68440;BMP180;55421;51.600;5.718;2022-08-21T03:52:11;223074.00;;;15.40
68440;BMP180;55421;51.600;5.718;2022-08-21T03:54:37;223055.59;;;15.30
68440;BMP180;55421;51.600;5.718;2022-08-21T03:57:05;223054.00;;;15.30
68440;BMP180;55421;51.600;5.718;2022-08-21T03:59:31;223029.59;;;15.30
68440;BMP180;55421;51.600;5.718;2022-08-21T04:02:02;223026.41;;;15.30
68440;BMP180;55421;51.600;5.718;2022-08-21T04:04:30;223022.41;;;15.30
68440;BMP180;55421;51.600;5.718;2022-08-21T04:06:57;222975.59;;;15.20
68440;BMP180;55421;51.600;5.718;2022-08-21T04:09:25;222951.80;;;15.18
68440;BMP180;55421;51.600;5.718;2022-08-21T04:11:53;222941.41;;;15.10
68440;BMP180;55421;51.600;5.718;2022-08-21T04:14:20;222941.41;;;15.14
68440;BMP180;55421;51.600;5.718;2022-08-21T04:16:46;222976.20;;;15.20
68440;BMP180;55421;51.600;5.718;2022-08-21T04:19:13;222993.20;;;15.20
68440;BMP180;55421;51.600;5.718;2022-08-21T04:21:41;223003.20;;;15.20
68440;BMP180;55421;51.600;5.718;2022-08-21T04:24:09;222993.20;;;15.20
68440;BMP180;55421;51.600;5.718;2022-08-21T04:26:38;222966.59;;;15.20
68440;BMP180;55421;51.600;5.718;2022-08-21T04:29:06;222950.59;;;15.20
68440;BMP180;55421;51.600;5.718;2022-08-21T04:31:36;222907.41;;;15.10
68440;BMP180;55421;51.600;5.718;2022-08-21T04:34:04;222901.41;;;15.10
68440;BMP180;55421;51.600;5.718;2022-08-21T04:36:33;222898.20;;;15.10
68440;BMP180;55421;51.600;5.718;2022-08-21T04:38:59;222907.41;;;15.10
68440;BMP180;55421;51.600;5.718;2022-08-21T04:41:26;222919.00;;;15.10
68440;BMP180;55421;51.600;5.718;2022-08-21T04:43:53;222935.00;;;15.10
68440;BMP180;55421;51.600;5.718;2022-08-21T04:46:22;222916.20;;;15.10
68440;BMP180;55421;51.600;5.718;2022-08-21T04:48:49;222905.41;;;15.10
68440;BMP180;55421;51.600;5.718;2022-08-21T04:51:19;222910.59;;;15.10
68440;BMP180;55421;51.600;5.718;2022-08-21T04:53:59;222936.59;;;15.10
68440;BMP180;55421;51.600;5.718;2022-08-21T04:56:31;222956.20;;;15.20
68440;BMP180;55421;51.600;5.718;2022-08-21T04:59:10;222968.20;;;15.20
68440;BMP180;55421;51.600;5.718;2022-08-21T05:01:39;222990.59;;;15.20
68440;BMP180;55421;51.600;5.718;2022-08-21T05:04:11;223033.20;;;15.30
68440;BMP180;55421;51.600;5.718;2022-08-21T05:06:41;223072.41;;;15.40
68440;BMP180;55421;51.600;5.718;2022-08-21T05:09:12;223085.59;;;15.40
68440;BMP180;55421;51.600;5.718;2022-08-21T05:11:40;223116.59;;;15.50
68440;BMP180;55421;51.600;5.718;2022-08-21T05:14:11;223127.59;;;15.50
68440;BMP180;55421;51.600;5.718;2022-08-21T05:16:38;223127.00;;;15.50
68440;BMP180;55421;51.600;5.718;2022-08-21T05:19:06;223112.41;;;15.44
68440;BMP180;55421;51.600;5.718;2022-08-21T05:21:35;223145.41;;;15.50
68440;BMP180;55421;51.600;5.718;2022-08-21T05:24:02;223193.20;;;15.60
68440;BMP180;55421;51.600;5.718;2022-08-21T05:26:30;223248.00;;;15.70
68440;BMP180;55421;51.600;5.718;2022-08-21T05:28:57;223266.80;;;15.70
68440;BMP180;55421;51.600;5.718;2022-08-21T05:31:23;223316.59;;;15.80
68440;BMP180;55421;51.600;5.718;2022-08-21T05:33:50;223343.80;;;15.88
68440;BMP180;55421;51.600;5.718;2022-08-21T05:36:18;223362.59;;;15.90
68440;BMP180;55421;51.600;5.718;2022-08-21T05:38:45;223353.80;;;15.90
68440;BMP180;55421;51.600;5.718;2022-08-21T05:41:12;223392.80;;;15.90
68440;BMP180;55421;51.600;5.718;2022-08-21T05:43:38;223435.59;;;16.00
68440;BMP180;55421;51.600;5.718;2022-08-21T05:46:08;223486.20;;;16.10
68440;BMP180;55421;51.600;5.718;2022-08-21T05:48:36;223535.80;;;16.20
68440;BMP180;55421;51.600;5.718;2022-08-21T05:51:09;223575.00;;;16.30
68440;BMP180;55421;51.600;5.718;2022-08-21T05:53:38;223585.59;;;16.30
68440;BMP180;55421;51.600;5.718;2022-08-21T05:56:05;223623.59;;;16.40
68440;BMP180;55421;51.600;5.718;2022-08-21T05:58:33;223650.20;;;16.40
68440;BMP180;55421;51.600;5.718;2022-08-21T06:01:02;223666.59;;;16.40
68440;BMP180;55421;51.600;5.718;2022-08-21T06:03:33;223694.59;;;16.50
68440;BMP180;55421;51.600;5.718;2022-08-21T06:06:01;223742.59;;;16.60
68440;BMP180;55421;51.600;5.718;2022-08-21T06:08:28;223793.59;;;16.60
68440;BMP180;55421;51.600;5.718;2022-08-21T06:10:58;223837.59;;;16.70
68440;BMP180;55421;51.600;5.718;2022-08-21T06:13:27;223866.80;;;16.80
68440;BMP180;55421;51.600;5.718;2022-08-21T06:16:13;223898.80;;;16.82
68440;BMP180;55421;51.600;5.718;2022-08-21T06:18:40;223927.80;;;16.90
68440;BMP180;55421;51.600;5.718;2022-08-21T06:21:08;223940.80;;;16.90
68440;BMP180;55421;51.600;5.718;2022-08-21T06:23:35;223986.41;;;17.00
68440;BMP180;55421;51.600;5.718;2022-08-21T06:26:03;224014.41;;;17.04
68440;BMP180;55421;51.600;5.718;2022-08-21T06:28:32;224066.20;;;17.10
68440;BMP180;55421;51.600;5.718;2022-08-21T06:30:59;224115.41;;;17.20
68440;BMP180;55421;51.600;5.718;2022-08-21T06:33:25;224179.20;;;17.30
68440;BMP180;55421;51.600;5.718;2022-08-21T06:35:52;224228.20;;;17.40
68440;BMP180;55421;51.600;5.718;2022-08-21T06:38:18;224271.80;;;17.50
68440;BMP180;55421;51.600;5.718;2022-08-21T06:40:45;224306.59;;;17.60
68440;BMP180;55421;51.600;5.718;2022-08-21T06:43:15;224347.80;;;17.62
68440;BMP180;55421;51.600;5.718;2022-08-21T06:45:43;224386.41;;;17.70
68440;BMP180;55421;51.600;5.718;2022-08-21T06:48:10;224435.80;;;17.80
68440;BMP180;55421;51.600;5.718;2022-08-21T06:50:37;224443.80;;;17.80
68440;BMP180;55421;51.600;5.718;2022-08-21T06:53:08;224480.20;;;17.90
68440;BMP180;55421;51.600;5.718;2022-08-21T06:55:37;224537.41;;;18.00
68440;BMP180;55421;51.600;5.718;2022-08-21T06:58:05;224607.59;;;18.10
68440;BMP180;55421;51.600;5.718;2022-08-21T07:00:33;224644.41;;;18.18
68440;BMP180;55421;51.600;5.718;2022-08-21T07:03:00;224685.80;;;18.20
68440;BMP180;55421;51.600;5.718;2022-08-21T07:05:29;224705.00;;;18.28
68440;BMP180;55421;51.600;5.718;2022-08-21T07:07:56;224709.20;;;18.30
68440;BMP180;55421;51.600;5.718;2022-08-21T07:10:25;224737.59;;;18.30
68440;BMP180;55421;51.600;5.718;2022-08-21T07:12:52;224762.41;;;18.40
68440;BMP180;55421;51.600;5.718;2022-08-21T07:15:21;224782.80;;;18.40
68440;BMP180;55421;51.600;5.718;2022-08-21T07:17:47;224826.00;;;18.50
68440;BMP180;55421;51.600;5.718;2022-08-21T07:20:14;224875.80;;;18.60
68440;BMP180;55421;51.600;5.718;2022-08-21T07:22:40;224900.59;;;18.60
68440;BMP180;55421;51.600;5.718;2022-08-21T07:25:08;224958.41;;;18.70
68440;BMP180;55421;51.600;5.718;2022-08-21T07:27:35;224992.00;;;18.78
68440;BMP180;55421;51.600;5.718;2022-08-21T07:30:02;225052.59;;;18.90
68440;BMP180;55421;51.600;5.718;2022-08-21T07:32:29;225072.59;;;18.90
68440;BMP180;55421;51.600;5.718;2022-08-21T07:34:55;225106.59;;;19.00
68440;BMP180;55421;51.600;5.718;2022-08-21T07:37:22;225157.41;;;19.10
68440;BMP180;55421;51.600;5.718;2022-08-21T07:39:48;225217.41;;;19.20
68440;BMP180;55421;51.600;5.718;2022-08-21T07:42:15;225285.41;;;19.30
68440;BMP180;55421;51.600;5.718;2022-08-21T07:44:45;225352.41;;;19.40
68440;BMP180;55421;51.600;5.718;2022-08-21T07:47:11;225436.80;;;19.60
68440;BMP180;55421;51.600;5.718;2022-08-21T07:49:37;225479.80;;;19.60
68440;BMP180;55421;51.600;5.718;2022-08-21T07:52:04;225476.59;;;19.60
68440;BMP180;55421;51.600;5.718;2022-08-21T07:54:31;225430.41;;;19.60
68440;BMP180;55421;51.600;5.718;2022-08-21T07:56:57;225385.59;;;19.50
68440;BMP180;55421;51.600;5.718;2022-08-21T07:59:23;225386.80;;;19.50
68440;BMP180;55421;51.600;5.718;2022-08-21T08:01:50;225450.20;;;19.60
68440;BMP180;55421;51.600;5.718;2022-08-21T08:04:16;225531.20;;;19.70
68440;BMP180;55421;51.600;5.718;2022-08-21T08:06:46;225602.80;;;19.88
68440;BMP180;55421;51.600;5.718;2022-08-21T08:09:13;225662.20;;;20.00
68440;BMP180;55421;51.600;5.718;2022-08-21T08:11:42;225750.80;;;20.10
68440;BMP180;55421;51.600;5.718;2022-08-21T08:14:11;225820.59;;;20.22
68440;BMP180;55421;51.600;5.718;2022-08-21T08:16:38;225867.80;;;20.30
68440;BMP180;55421;51.600;5.718;2022-08-21T08:19:04;225879.00;;;20.30
68440;BMP180;55421;51.600;5.718;2022-08-21T08:21:31;225931.80;;;20.40
68440;BMP180;55421;51.600;5.718;2022-08-21T08:23:59;226015.00;;;20.60
68440;BMP180;55421;51.600;5.718;2022-08-21T08:26:26;226069.41;;;20.70
68440;BMP180;55421;51.600;5.718;2022-08-21T08:28:53;226137.59;;;20.80
68440;BMP180;55421;51.600;5.718;2022-08-21T08:31:19;226186.00;;;20.90
68440;BMP180;55421;51.600;5.718;2022-08-21T08:33:46;226224.00;;;20.98
68440;BMP180;55421;51.600;5.718;2022-08-21T08:36:16;226273.41;;;21.00
68440;BMP180;55421;51.600;5.718;2022-08-21T08:38:43;226327.59;;;21.10
68440;BMP180;55421;51.600;5.718;2022-08-21T08:41:20;226380.00;;;21.20
68440;BMP180;55421;51.600;5.718;2022-08-21T08:43:53;226372.80;;;21.20
68440;BMP180;55421;51.600;5.718;2022-08-21T08:46:40;226384.80;;;21.26
68440;BMP180;55421;51.600;5.718;2022-08-21T08:52:18;226431.59;;;21.30
68440;BMP180;55421;51.600;5.718;2022-08-21T08:55:09;226465.80;;;21.40
68440;BMP180;55421;51.600;5.718;2022-08-21T08:57:41;226433.59;;;21.30
68440;BMP180;55421;51.600;5.718;2022-08-21T09:00:13;226477.00;;;21.40
68440;BMP180;55421;51.600;5.718;2022-08-21T09:02:43;226586.80;;;21.60
68440;BMP180;55421;51.600;5.718;2022-08-21T09:11:00;226999.20;;;22.30
68440;BMP180;55421;51.600;5.718;2022-08-21T09:16:49;226830.20;;;22.00
68440;BMP180;55421;51.600;5.718;2022-08-21T09:19:35;226766.80;;;21.90
68440;BMP180;55421;51.600;5.718;2022-08-21T09:22:23;226791.00;;;21.92
68440;BMP180;55421;51.600;5.718;2022-08-21T09:25:12;226844.59;;;22.10
68440;BMP180;55421;51.600;5.718;2022-08-21T09:27:41;226871.41;;;22.10
68440;BMP180;55421;51.600;5.718;2022-08-21T09:30:09;226921.00;;;22.20
68440;BMP180;55421;51.600;5.718;2022-08-21T09:32:38;226935.00;;;22.20
68440;BMP180;55421;51.600;5.718;2022-08-21T09:35:15;226974.00;;;22.30
68440;BMP180;55421;51.600;5.718;2022-08-21T09:38:02;227035.80;;;22.40
68440;BMP180;55421;51.600;5.718;2022-08-21T09:40:45;227081.41;;;22.50
68440;BMP180;55421;51.600;5.718;2022-08-21T09:43:23;227136.41;;;22.60
68440;BMP180;55421;51.600;5.718;2022-08-21T09:46:23;227180.41;;;22.66
68440;BMP180;55421;51.600;5.718;2022-08-21T09:48:54;227226.80;;;22.70
68440;BMP180;55421;51.600;5.718;2022-08-21T09:51:28;227279.41;;;22.80
68440;BMP180;55421;51.600;5.718;2022-08-21T09:54:15;227285.80;;;22.80
68440;BMP180;55421;51.600;5.718;2022-08-21T09:59:43;227281.00;;;22.80
68440;BMP180;55421;51.600;5.718;2022-08-21T10:02:31;227348.41;;;22.90
68440;BMP180;55421;51.600;5.718;2022-08-21T10:05:15;227429.59;;;23.10
68440;BMP180;55421;51.600;5.718;2022-08-21T10:07:42;227511.41;;;23.20
68440;BMP180;55421;51.600;5.718;2022-08-21T10:10:30;227608.41;;;23.40
68440;BMP180;55421;51.600;5.718;2022-08-21T10:18:41;227884.59;;;23.90
68440;BMP180;55421;51.600;5.718;2022-08-21T10:21:23;227903.80;;;23.90
68440;BMP180;55421;51.600;5.718;2022-08-21T10:24:07;227883.00;;;23.90
68440;BMP180;55421;51.600;5.718;2022-08-21T10:26:54;227806.59;;;23.70
68440;BMP180;55421;51.600;5.718;2022-08-21T10:35:23;227679.80;;;23.50
68440;BMP180;55421;51.600;5.718;2022-08-21T10:38:27;227567.59;;;23.30
68440;BMP180;55421;51.600;5.718;2022-08-21T10:41:20;227447.80;;;23.10
68440;BMP180;55421;51.600;5.718;2022-08-21T10:46:51;227407.59;;;23.00
68440;BMP180;55421;51.600;5.718;2022-08-21T10:55:26;227878.20;;;23.90
68440;BMP180;55421;51.600;5.718;2022-08-21T10:58:14;227902.20;;;23.90
68440;BMP180;55421;51.600;5.718;2022-08-21T11:00:50;227831.41;;;23.80
68440;BMP180;55421;51.600;5.718;2022-08-21T11:03:45;227799.20;;;23.72
68440;BMP180;55421;51.600;5.718;2022-08-21T11:06:21;227852.59;;;23.80
68440;BMP180;55421;51.600;5.718;2022-08-21T11:08:55;227791.20;;;23.70
68440;BMP180;55421;51.600;5.718;2022-08-21T11:11:30;227681.41;;;23.50
68440;BMP180;55421;51.600;5.718;2022-08-21T11:14:04;227718.20;;;23.60
68440;BMP180;55421;51.600;5.718;2022-08-21T11:16:42;227683.00;;;23.54
68440;BMP180;55421;51.600;5.718;2022-08-21T11:22:19;227719.41;;;23.60
68440;BMP180;55421;51.600;5.718;2022-08-21T11:25:20;227796.80;;;23.70
68440;BMP180;55421;51.600;5.718;2022-08-21T11:28:06;227798.20;;;23.70
68440;BMP180;55421;51.600;5.718;2022-08-21T11:31:20;227778.59;;;23.70
68440;BMP180;55421;51.600;5.718;2022-08-21T11:34:10;227735.80;;;23.60
68440;BMP180;55421;51.600;5.718;2022-08-21T11:37:10;227735.41;;;23.60
68440;BMP180;55421;51.600;5.718;2022-08-21T11:43:38;227686.20;;;23.52
68440;BMP180;55421;51.600;5.718;2022-08-21T11:46:29;227686.20;;;23.52
68440;BMP180;55421;51.600;5.718;2022-08-21T11:49:19;227663.80;;;23.50
68440;BMP180;55421;51.600;5.718;2022-08-21T11:51:56;227637.00;;;23.48
68440;BMP180;55421;51.600;5.718;2022-08-21T11:54:37;227683.00;;;23.50
68440;BMP180;55421;51.600;5.718;2022-08-21T11:57:14;227752.80;;;23.62
68440;BMP180;55421;51.600;5.718;2022-08-21T12:00:05;227886.20;;;23.90
68440;BMP180;55421;51.600;5.718;2022-08-21T12:02:42;227915.00;;;23.90
68440;BMP180;55421;51.600;5.718;2022-08-21T12:05:27;227875.00;;;23.90
68440;BMP180;55421;51.600;5.718;2022-08-21T12:11:10;228004.80;;;24.10
68440;BMP180;55421;51.600;5.718;2022-08-21T12:16:40;228069.00;;;24.20
68440;BMP180;55421;51.600;5.718;2022-08-21T12:22:06;228062.59;;;24.20
68440;BMP180;55421;51.600;5.718;2022-08-21T12:24:53;228011.20;;;24.10
68440;BMP180;55421;51.600;5.718;2022-08-21T12:28:10;227957.59;;;24.00
68440;BMP180;55421;51.600;5.718;2022-08-21T12:30:43;227876.59;;;23.90
68440;BMP180;55421;51.600;5.718;2022-08-21T12:33:32;227851.00;;;23.80
68440;BMP180;55421;51.600;5.718;2022-08-21T12:36:23;227798.41;;;23.70
68440;BMP180;55421;51.600;5.718;2022-08-21T12:38:57;227731.00;;;23.60
68440;BMP180;55421;51.600;5.718;2022-08-21T12:41:31;227683.00;;;23.50
68440;BMP180;55421;51.600;5.718;2022-08-21T12:44:09;227643.00;;;23.50
68440;BMP180;55421;51.600;5.718;2022-08-21T12:46:58;227657.41;;;23.50
68440;BMP180;55421;51.600;5.718;2022-08-21T12:49:31;227654.20;;;23.50
68440;BMP180;55421;51.600;5.718;2022-08-21T12:52:32;227635.00;;;23.48
68440;BMP180;55421;51.600;5.718;2022-08-21T12:55:00;227667.00;;;23.50
68440;BMP180;55421;51.600;5.718;2022-08-21T12:57:30;227737.00;;;23.60
68440;BMP180;55421;51.600;5.718;2022-08-21T13:00:01;227813.00;;;23.78
68440;BMP180;55421;51.600;5.718;2022-08-21T13:02:35;227889.41;;;23.90
68440;BMP180;55421;51.600;5.718;2022-08-21T13:05:08;227984.00;;;24.10
68440;BMP180;55421;51.600;5.718;2022-08-21T13:07:38;228086.59;;;24.24
68440;BMP180;55421;51.600;5.718;2022-08-21T13:10:24;228188.80;;;24.40
68440;BMP180;55421;51.600;5.718;2022-08-21T13:12:56;228226.00;;;24.50
68440;BMP180;55421;51.600;5.718;2022-08-21T13:15:32;228288.59;;;24.60
68440;BMP180;55421;51.600;5.718;2022-08-21T13:18:01;228272.59;;;24.60
68440;BMP180;55421;51.600;5.718;2022-08-21T13:20:36;228206.41;;;24.50
68440;BMP180;55421;51.600;5.718;2022-08-21T13:23:19;228134.80;;;24.30
68440;BMP180;55421;51.600;5.718;2022-08-21T13:25:46;228073.80;;;24.20
68440;BMP180;55421;51.600;5.718;2022-08-21T13:28:12;228001.59;;;24.10
68440;BMP180;55421;51.600;5.718;2022-08-21T13:30:49;228025.59;;;24.14
68440;BMP180;55421;51.600;5.718;2022-08-21T13:33:21;228067.41;;;24.20
68440;BMP180;55421;51.600;5.718;2022-08-21T13:36:09;228033.59;;;24.20
68440;BMP180;55421;51.600;5.718;2022-08-21T13:38:40;227988.80;;;24.10
68440;BMP180;55421;51.600;5.718;2022-08-21T13:41:24;227930.00;;;24.00
68440;BMP180;55421;51.600;5.718;2022-08-21T13:44:02;227928.20;;;24.00
68440;BMP180;55421;51.600;5.718;2022-08-21T13:46:34;227998.41;;;24.10
68440;BMP180;55421;51.600;5.718;2022-08-21T13:49:04;228099.80;;;24.30
68440;BMP180;55421;51.600;5.718;2022-08-21T13:51:33;228149.20;;;24.38
68440;BMP180;55421;51.600;5.718;2022-08-21T13:54:01;228117.20;;;24.30
68440;BMP180;55421;51.600;5.718;2022-08-21T13:56:33;228085.00;;;24.20
68440;BMP180;55421;51.600;5.718;2022-08-21T13:59:07;228057.80;;;24.20
68440;BMP180;55421;51.600;5.718;2022-08-21T14:04:18;228034.59;;;24.18
68440;BMP180;55421;51.600;5.718;2022-08-21T14:06:46;228017.59;;;24.10
68440;BMP180;55421;51.600;5.718;2022-08-21T14:09:31;228016.00;;;24.10
68440;BMP180;55421;51.600;5.718;2022-08-21T14:12:04;227987.20;;;24.10
68440;BMP180;55421;51.600;5.718;2022-08-21T14:14:39;227950.00;;;24.00
68440;BMP180;55421;51.600;5.718;2022-08-21T14:17:13;227977.59;;;24.10
68440;BMP180;55421;51.600;5.718;2022-08-21T14:19:46;228036.80;;;24.20
68440;BMP180;55421;51.600;5.718;2022-08-21T14:22:46;228107.20;;;24.30
68440;BMP180;55421;51.600;5.718;2022-08-21T14:25:29;228133.20;;;24.30
68440;BMP180;55421;51.600;5.718;2022-08-21T14:28:24;228148.41;;;24.38
68440;BMP180;55421;51.600;5.718;2022-08-21T14:30:53;228182.00;;;24.40
68440;BMP180;55421;51.600;5.718;2022-08-21T14:33:33;228205.20;;;24.50
68440;BMP180;55421;51.600;5.718;2022-08-21T14:35:59;228213.59;;;24.50
68440;BMP180;55421;51.600;5.718;2022-08-21T14:38:29;228201.59;;;24.42
68440;BMP180;55421;51.600;5.718;2022-08-21T14:41:16;228178.00;;;24.40
68440;BMP180;55421;51.600;5.718;2022-08-21T14:43:45;228170.41;;;24.40
68440;BMP180;55421;51.600;5.718;2022-08-21T14:46:21;228184.00;;;24.40
68440;BMP180;55421;51.600;5.718;2022-08-21T14:48:48;228192.00;;;24.40
68440;BMP180;55421;51.600;5.718;2022-08-21T14:51:15;228148.80;;;24.32
68440;BMP180;55421;51.600;5.718;2022-08-21T14:53:41;228125.20;;;24.30
68440;BMP180;55421;51.600;5.718;2022-08-21T14:56:08;228117.20;;;24.30
68440;BMP180;55421;51.600;5.718;2022-08-21T14:58:38;228114.00;;;24.30
68440;BMP180;55421;51.600;5.718;2022-08-21T15:01:11;228125.20;;;24.30
68440;BMP180;55421;51.600;5.718;2022-08-21T15:03:39;228133.20;;;24.30
68440;BMP180;55421;51.600;5.718;2022-08-21T15:06:08;228149.59;;;24.38
68440;BMP180;55421;51.600;5.718;2022-08-21T15:08:35;228169.20;;;24.40
68440;BMP180;55421;51.600;5.718;2022-08-21T15:11:04;228191.59;;;24.40
68440;BMP180;55421;51.600;5.718;2022-08-21T15:13:32;228217.59;;;24.50
68440;BMP180;55421;51.600;5.718;2022-08-21T15:15:59;228236.80;;;24.50
68440;BMP180;55421;51.600;5.718;2022-08-21T15:18:28;228263.00;;;24.60
68440;BMP180;55421;51.600;5.718;2022-08-21T15:20:56;228314.41;;;24.66